sensor_id;sensor_type;location;lat;lon;timestamp;temperature;humidity
14775;DHT22;7479;47.042;15.160;2022-08-14T05:31:15;15.10;99.90
14775;DHT22;7479;47.042;15.160;2022-08-14T05:36:13;15.20;99.90
14775;DHT22;7479;47.042;15.160;2022-08-14T05:41:09;15.40;99.90
14775;DHT22;7479;47.042;15.160;2022-08-14T05:46:04;15.60;99.90
14775;DHT22;7479;47.042;15.160;2022-08-14T06:07:47;16.60;99.90
14775;DHT22;7479;47.042;15.160;2022-08-14T06:12:40;17.30;99.90
14775;DHT22;7479;47.042;15.160;2022-08-14T06:17:52;17.90;99.90
14775;DHT22;7479;47.042;15.160;2022-08-14T06:22:52;17.80;99.90
14775;DHT22;7479;47.042;15.160;2022-08-14T06:27:48;17.70;99.90
14775;DHT22;7479;47.042;15.160;2022-08-14T06:32:42;17.60;99.90
14775;DHT22;7479;47.042;15.160;2022-08-14T06:37:40;17.80;99.90
14775;DHT22;7479;47.042;15.160;2022-08-14T06:42:36;17.80;99.90
14775;DHT22;7479;47.042;15.160;2022-08-14T06:47:32;18.00;99.90
14775;DHT22;7479;47.042;15.160;2022-08-14T07:07:40;18.90;99.90
14775;DHT22;7479;47.042;15.160;2022-08-14T07:12:33;19.10;99.90
14775;DHT22;7479;47.042;15.160;2022-08-14T07:17:48;19.40;99.90
14775;DHT22;7479;47.042;15.160;2022-08-14T07:22:45;19.60;99.90
14775;DHT22;7479;47.042;15.160;2022-08-14T07:27:50;20.00;99.90
14775;DHT22;7479;47.042;15.160;2022-08-14T07:32:44;20.40;99.90
14775;DHT22;7479;47.042;15.160;2022-08-14T07:37:38;20.70;99.90
14775;DHT22;7479;47.042;15.160;2022-08-14T07:42:33;21.10;99.90
14775;DHT22;7479;47.042;15.160;2022-08-14T07:47:32;21.40;99.90
14775;DHT22;7479;47.042;15.160;2022-08-14T08:06:51;22.40;99.90
14775;DHT22;7479;47.042;15.160;2022-08-14T08:11:46;22.60;99.90
14775;DHT22;7479;47.042;15.160;2022-08-14T08:16:48;22.80;99.90
14775;DHT22;7479;47.042;15.160;2022-08-14T08:21:42;23.00;99.90
14775;DHT22;7479;47.042;15.160;2022-08-14T08:26:38;23.20;99.90
14775;DHT22;7479;47.042;15.160;2022-08-14T08:31:33;23.40;99.90
14775;DHT22;7479;47.042;15.160;2022-08-14T08:36:27;23.50;99.90
14775;DHT22;7479;47.042;15.160;2022-08-14T08:41:22;23.70;99.90
14775;DHT22;7479;47.042;15.160;2022-08-14T08:46:19;23.90;99.30
14775;DHT22;7479;47.042;15.160;2022-08-14T08:51:23;24.10;99.90
14775;DHT22;7479;47.042;15.160;2022-08-14T08:56:35;24.40;98.50
14775;DHT22;7479;47.042;15.160;2022-08-14T09:01:35;24.70;97.60
14775;DHT22;7479;47.042;15.160;2022-08-14T09:06:29;24.90;95.70
14775;DHT22;7479;47.042;15.160;2022-08-14T09:11:43;25.20;94.70
14775;DHT22;7479;47.042;15.160;2022-08-14T09:16:40;25.40;94.20
14775;DHT22;7479;47.042;15.160;2022-08-14T09:21:39;25.60;93.80
14775;DHT22;7479;47.042;15.160;2022-08-14T09:26:35;25.70;93.90
14775;DHT22;7479;47.042;15.160;2022-08-14T09:31:32;25.90;92.60
14775;DHT22;7479;47.042;15.160;2022-08-14T09:36:55;26.20;92.90
14775;DHT22;7479;47.042;15.160;2022-08-14T09:42:14;26.40;90.80
14775;DHT22;7479;47.042;15.160;2022-08-14T09:47:40;26.50;90.80
14775;DHT22;7479;47.042;15.160;2022-08-14T09:52:47;26.80;90.00
14775;DHT22;7479;47.042;15.160;2022-08-14T09:57:46;27.10;88.20
14775;DHT22;7479;47.042;15.160;2022-08-14T10:02:51;27.20;86.90
14775;DHT22;7479;47.042;15.160;2022-08-14T10:07:48;27.50;85.60
14775;DHT22;7479;47.042;15.160;2022-08-14T10:12:51;27.80;85.50
14775;DHT22;7479;47.042;15.160;2022-08-14T10:17:49;28.10;82.60
14775;DHT22;7479;47.042;15.160;2022-08-14T10:22:45;28.20;81.40
14775;DHT22;7479;47.042;15.160;2022-08-14T10:28:00;28.50;79.60
14775;DHT22;7479;47.042;15.160;2022-08-14T10:32:55;28.70;77.70
14775;DHT22;7479;47.042;15.160;2022-08-14T10:37:51;29.10;76.60
14775;DHT22;7479;47.042;15.160;2022-08-14T10:42:47;29.30;75.90
14775;DHT22;7479;47.042;15.160;2022-08-14T10:47:41;29.40;75.60
14775;DHT22;7479;47.042;15.160;2022-08-14T10:52:57;29.60;73.10
14775;DHT22;7479;47.042;15.160;2022-08-14T10:57:54;30.00;70.80
14775;DHT22;7479;47.042;15.160;2022-08-14T11:02:57;30.30;69.10
14775;DHT22;7479;47.042;15.160;2022-08-14T11:07:58;30.70;68.50
14775;DHT22;7479;47.042;15.160;2022-08-14T11:13:00;30.80;68.60
14775;DHT22;7479;47.042;15.160;2022-08-14T11:17:56;31.30;68.00
14775;DHT22;7479;47.042;15.160;2022-08-14T11:22:53;31.70;65.90
14775;DHT22;7479;47.042;15.160;2022-08-14T11:27:52;31.90;66.00
14775;DHT22;7479;47.042;15.160;2022-08-14T11:32:48;31.80;64.90
14775;DHT22;7479;47.042;15.160;2022-08-14T11:37:54;32.20;64.60
14775;DHT22;7479;47.042;15.160;2022-08-14T11:42:52;32.70;62.30
14775;DHT22;7479;47.042;15.160;2022-08-14T11:47:51;33.10;60.20
14775;DHT22;7479;47.042;15.160;2022-08-14T11:53:09;33.60;59.60
14775;DHT22;7479;47.042;15.160;2022-08-14T11:58:15;33.20;59.60
14775;DHT22;7479;47.042;15.160;2022-08-14T12:03:15;33.40;58.80
14775;DHT22;7479;47.042;15.160;2022-08-14T12:08:18;32.80;58.70
14775;DHT22;7479;47.042;15.160;2022-08-14T12:13:18;31.80;60.40
14775;DHT22;7479;47.042;15.160;2022-08-14T12:18:28;31.90;62.40
14775;DHT22;7479;47.042;15.160;2022-08-14T12:23:24;32.20;62.90
14775;DHT22;7479;47.042;15.160;2022-08-14T12:28:21;32.90;60.90
14775;DHT22;7479;47.042;15.160;2022-08-14T12:33:26;32.90;59.20
14775;DHT22;7479;47.042;15.160;2022-08-14T12:38:33;33.30;59.30
14775;DHT22;7479;47.042;15.160;2022-08-14T12:43:30;33.40;58.20
14775;DHT22;7479;47.042;15.160;2022-08-14T12:48:25;33.90;57.00
14775;DHT22;7479;47.042;15.160;2022-08-14T12:53:33;33.80;57.40
14775;DHT22;7479;47.042;15.160;2022-08-14T12:58:31;32.90;58.30
14775;DHT22;7479;47.042;15.160;2022-08-14T13:03:44;31.90;59.70
14775;DHT22;7479;47.042;15.160;2022-08-14T13:08:44;31.30;61.70
14775;DHT22;7479;47.042;15.160;2022-08-14T13:13:47;31.70;62.10
14775;DHT22;7479;47.042;15.160;2022-08-14T13:18:43;31.50;61.70
14775;DHT22;7479;47.042;15.160;2022-08-14T13:23:48;31.90;60.10
14775;DHT22;7479;47.042;15.160;2022-08-14T13:28:43;32.40;59.60
14775;DHT22;7479;47.042;15.160;2022-08-14T13:33:56;32.10;59.70
14775;DHT22;7479;47.042;15.160;2022-08-14T13:38:52;32.70;60.60
14775;DHT22;7479;47.042;15.160;2022-08-14T13:43:48;32.90;59.20
14775;DHT22;7479;47.042;15.160;2022-08-14T13:48:51;33.60;57.20
14775;DHT22;7479;47.042;15.160;2022-08-14T13:53:48;34.10;56.50
14775;DHT22;7479;47.042;15.160;2022-08-14T13:59:01;34.40;55.00
14775;DHT22;7479;47.042;15.160;2022-08-14T14:03:55;34.60;55.00
14775;DHT22;7479;47.042;15.160;2022-08-14T14:08:54;34.80;55.40
14775;DHT22;7479;47.042;15.160;2022-08-14T14:13:50;34.40;55.40
14775;DHT22;7479;47.042;15.160;2022-08-14T14:18:47;33.40;56.90
14775;DHT22;7479;47.042;15.160;2022-08-14T14:23:44;32.80;57.10
14775;DHT22;7479;47.042;15.160;2022-08-14T14:28:40;32.10;58.50
14775;DHT22;7479;47.042;15.160;2022-08-14T14:33:35;31.50;59.20
14775;DHT22;7479;47.042;15.160;2022-08-14T14:38:40;31.30;59.80
14775;DHT22;7479;47.042;15.160;2022-08-14T14:43:43;31.20;60.90
14775;DHT22;7479;47.042;15.160;2022-08-14T14:48:43;31.10;61.00
14775;DHT22;7479;47.042;15.160;2022-08-14T14:53:46;30.90;60.60
14775;DHT22;7479;47.042;15.160;2022-08-14T14:58:41;30.70;60.60
14775;DHT22;7479;47.042;15.160;2022-08-14T15:03:38;30.60;60.40
14775;DHT22;7479;47.042;15.160;2022-08-14T15:08:35;30.50;60.70
14775;DHT22;7479;47.042;15.160;2022-08-14T15:13:49;30.30;61.80
14775;DHT22;7479;47.042;15.160;2022-08-14T15:18:44;30.30;61.80
14775;DHT22;7479;47.042;15.160;2022-08-14T15:23:40;30.30;63.70
14775;DHT22;7479;47.042;15.160;2022-08-14T15:28:35;30.30;63.40
14775;DHT22;7479;47.042;15.160;2022-08-14T15:33:31;30.10;63.70
14775;DHT22;7479;47.042;15.160;2022-08-14T15:39:03;30.00;62.60
14775;DHT22;7479;47.042;15.160;2022-08-14T15:43:57;30.00;62.10
14775;DHT22;7479;47.042;15.160;2022-08-14T15:48:52;29.90;64.00
14775;DHT22;7479;47.042;15.160;2022-08-14T15:53:46;29.80;63.00
14775;DHT22;7479;47.042;15.160;2022-08-14T15:58:42;29.70;63.80
14775;DHT22;7479;47.042;15.160;2022-08-14T16:03:37;29.50;63.00
14775;DHT22;7479;47.042;15.160;2022-08-14T16:08:37;29.50;64.30
14775;DHT22;7479;47.042;15.160;2022-08-14T16:13:32;29.40;65.90
14775;DHT22;7479;47.042;15.160;2022-08-14T16:18:35;29.40;65.00
14775;DHT22;7479;47.042;15.160;2022-08-14T16:23:32;29.30;65.10
14775;DHT22;7479;47.042;15.160;2022-08-14T16:28:30;29.20;64.20
14775;DHT22;7479;47.042;15.160;2022-08-14T16:33:25;29.40;64.40
14775;DHT22;7479;47.042;15.160;2022-08-14T16:38:40;29.50;65.20
14775;DHT22;7479;47.042;15.160;2022-08-14T16:43:40;29.50;64.70
14775;DHT22;7479;47.042;15.160;2022-08-14T16:48:35;29.50;66.70
14775;DHT22;7479;47.042;15.160;2022-08-14T16:53:49;29.20;67.30
14775;DHT22;7479;47.042;15.160;2022-08-14T16:58:45;29.40;67.60
14775;DHT22;7479;47.042;15.160;2022-08-14T17:03:53;31.80;63.00
14775;DHT22;7479;47.042;15.160;2022-08-14T17:08:49;34.40;58.60
14775;DHT22;7479;47.042;15.160;2022-08-14T17:13:49;35.80;55.70
14775;DHT22;7479;47.042;15.160;2022-08-14T17:18:54;36.20;54.20
14775;DHT22;7479;47.042;15.160;2022-08-14T17:23:53;36.20;53.60
14775;DHT22;7479;47.042;15.160;2022-08-14T17:29:03;36.20;53.80
14775;DHT22;7479;47.042;15.160;2022-08-14T17:33:57;35.50;55.10
14775;DHT22;7479;47.042;15.160;2022-08-14T17:38:59;32.80;60.40
14775;DHT22;7479;47.042;15.160;2022-08-14T17:44:12;30.80;66.60
14775;DHT22;7479;47.042;15.160;2022-08-14T17:49:15;29.90;69.70
14775;DHT22;7479;47.042;15.160;2022-08-14T17:54:10;28.90;72.90
14775;DHT22;7479;47.042;15.160;2022-08-14T17:59:15;28.00;76.40
14775;DHT22;7479;47.042;15.160;2022-08-14T18:04:12;27.30;80.60
14775;DHT22;7479;47.042;15.160;2022-08-14T18:09:20;26.80;82.20
14775;DHT22;7479;47.042;15.160;2022-08-14T18:14:20;26.40;86.30
14775;DHT22;7479;47.042;15.160;2022-08-14T18:19:25;26.00;87.70
14775;DHT22;7479;47.042;15.160;2022-08-14T18:24:20;25.60;89.00
14775;DHT22;7479;47.042;15.160;2022-08-14T18:29:23;25.40;90.10
14775;DHT22;7479;47.042;15.160;2022-08-14T18:34:22;25.20;90.90
14775;DHT22;7479;47.042;15.160;2022-08-14T18:39:28;25.00;91.90
14775;DHT22;7479;47.042;15.160;2022-08-14T18:50:20;24.50;93.10
14775;DHT22;7479;47.042;15.160;2022-08-14T18:55:42;24.30;94.00
14775;DHT22;7479;47.042;15.160;2022-08-14T19:00:49;24.00;94.80
14775;DHT22;7479;47.042;15.160;2022-08-14T19:05:58;23.80;95.40
14775;DHT22;7479;47.042;15.160;2022-08-14T19:10:57;23.70;95.60
14775;DHT22;7479;47.042;15.160;2022-08-14T19:16:04;23.60;96.20
14775;DHT22;7479;47.042;15.160;2022-08-14T19:21:21;23.40;96.60
14775;DHT22;7479;47.042;15.160;2022-08-14T19:26:22;23.30;96.80
14775;DHT22;7479;47.042;15.160;2022-08-14T19:31:35;23.10;97.30
14775;DHT22;7479;47.042;15.160;2022-08-14T19:36:49;23.00;98.00
14775;DHT22;7479;47.042;15.160;2022-08-14T19:41:57;22.90;98.60
14775;DHT22;7479;47.042;15.160;2022-08-14T19:46:52;22.70;99.30
14775;DHT22;7479;47.042;15.160;2022-08-14T19:51:57;22.60;99.70
14775;DHT22;7479;47.042;15.160;2022-08-14T19:56:51;22.60;99.90
14775;DHT22;7479;47.042;15.160;2022-08-14T20:01:49;22.40;99.90
14775;DHT22;7479;47.042;15.160;2022-08-14T20:06:43;22.30;99.90
14775;DHT22;7479;47.042;15.160;2022-08-14T20:11:40;22.30;99.90
14775;DHT22;7479;47.042;15.160;2022-08-14T20:16:56;22.30;99.90
14775;DHT22;7479;47.042;15.160;2022-08-14T20:21:59;22.10;99.90
14775;DHT22;7479;47.042;15.160;2022-08-14T20:27:36;22.10;99.90
14775;DHT22;7479;47.042;15.160;2022-08-14T20:32:32;22.00;99.90
14775;DHT22;7479;47.042;15.160;2022-08-14T20:37:27;21.90;99.90
14775;DHT22;7479;47.042;15.160;2022-08-14T20:42:33;21.80;99.90
14775;DHT22;7479;47.042;15.160;2022-08-14T20:47:46;21.70;99.90
14775;DHT22;7479;47.042;15.160;2022-08-14T20:52:52;21.60;99.90
